createdAt,value
2023-04-27T00:00:57.646Z,20.08
2023-04-27T00:03:26.854Z,11.07
2023-04-27T00:05:55.920Z,13.02
2023-04-27T00:08:24.846Z,13.55
2023-04-27T00:10:53.440Z,13.95
2023-04-27T00:13:22.203Z,12.48
2023-04-27T00:15:50.828Z,20.08
2023-04-27T00:18:19.486Z,15.35
2023-04-27T00:20:48.151Z,14.57
2023-04-27T00:23:16.975Z,14.10
2023-04-27T00:25:48.944Z,11.60
2023-04-27T00:28:17.592Z,18.20
2023-04-27T00:30:46.308Z,12.70
2023-04-27T00:33:15.037Z,12.45
2023-04-27T00:35:43.610Z,11.40
2023-04-27T00:38:12.612Z,13.63
2023-04-27T00:40:41.749Z,10.38
2023-04-27T00:43:10.340Z,12.60
2023-04-27T00:45:44.555Z,12.07
2023-04-27T00:48:14.646Z,14.80
2023-04-27T00:50:43.317Z,9.07
2023-04-27T00:53:12.030Z,11.30
2023-04-27T00:55:40.686Z,10.65
2023-04-27T00:58:11.534Z,12.20
2023-04-27T01:00:41.258Z,12.50
2023-04-27T01:03:10.945Z,8.95
2023-04-27T01:05:40.478Z,11.85
2023-04-27T01:08:09.167Z,9.38
2023-04-27T01:10:38.571Z,9.52
2023-04-27T01:13:07.314Z,11.05
2023-04-27T01:15:36.005Z,10.30
2023-04-27T01:18:05.411Z,10.70
2023-04-27T01:20:34.254Z,15.02
2023-04-27T01:23:03.092Z,12.93
2023-04-27T01:25:31.980Z,17.83
2023-04-27T01:28:00.753Z,11.93
2023-04-27T01:30:31.002Z,9.35
2023-04-27T01:32:59.741Z,10.43
2023-04-27T01:35:28.596Z,10.80
2023-04-27T01:37:58.714Z,11.52
2023-04-27T01:40:27.462Z,9.07
2023-04-27T01:42:56.158Z,9.82
2023-04-27T01:45:24.868Z,12.15
2023-04-27T01:47:54.353Z,10.07
2023-04-27T01:50:23.230Z,13.00
2023-04-27T01:52:51.969Z,10.48
2023-04-27T01:55:20.646Z,13.45
2023-04-27T01:57:49.285Z,9.82
2023-04-27T02:00:18.699Z,12.32
2023-04-27T02:02:47.607Z,8.88
2023-04-27T02:05:16.712Z,10.23
2023-04-27T02:07:45.306Z,10.38
2023-04-27T02:10:13.940Z,9.75
2023-04-27T02:12:42.520Z,10.82
2023-04-27T02:15:11.474Z,10.48
2023-04-27T02:17:40.547Z,11.45
2023-04-27T02:20:11.053Z,10.15
2023-04-27T02:22:44.804Z,11.32
2023-04-27T02:25:14.566Z,12.75
2023-04-27T02:27:43.367Z,10.63
2023-04-27T02:30:13.845Z,12.02
2023-04-27T02:32:43.405Z,13.10
2023-04-27T02:35:12.412Z,11.65
2023-04-27T02:37:41.110Z,14.90
2023-04-27T02:40:10.514Z,16.73
2023-04-27T02:42:40.098Z,12.02
2023-04-27T02:45:09.665Z,11.55
2023-04-27T02:47:38.441Z,12.77
2023-04-27T02:50:07.530Z,12.93
2023-04-27T02:52:36.484Z,14.00
2023-04-27T02:55:05.201Z,12.35
2023-04-27T02:57:33.849Z,13.50
2023-04-27T03:00:03.747Z,14.88
2023-04-27T03:02:32.676Z,12.63
2023-04-27T03:05:01.440Z,13.43
2023-04-27T03:07:30.082Z,14.48
2023-04-27T03:09:58.767Z,12.40
2023-04-27T03:12:27.408Z,12.90
2023-04-27T03:14:56.122Z,16.02
2023-04-27T03:17:24.753Z,15.50
2023-04-27T03:19:53.490Z,14.75
2023-04-27T03:22:22.270Z,17.73
2023-04-27T03:24:50.941Z,16.27
2023-04-27T03:27:19.844Z,17.17
2023-04-27T03:29:48.449Z,13.13
2023-04-27T03:32:17.087Z,13.30
2023-04-27T03:34:45.728Z,13.48
2023-04-27T03:37:14.528Z,10.27
2023-04-27T03:39:43.109Z,9.50
2023-04-27T03:42:12.069Z,9.50
2023-04-27T03:44:40.698Z,9.77
2023-04-27T03:47:10.062Z,10.55
2023-04-27T03:49:38.776Z,11.73
2023-04-27T03:52:07.494Z,10.38
2023-04-27T03:54:36.191Z,12.23
2023-04-27T03:57:05.424Z,8.50
2023-04-27T03:59:34.190Z,9.93
2023-04-27T04:02:04.760Z,10.27
2023-04-27T04:04:33.677Z,10.48
2023-04-27T04:07:02.487Z,11.45
2023-04-27T04:09:31.154Z,10.25
2023-04-27T04:11:59.949Z,10.10
2023-04-27T04:14:29.697Z,11.05
2023-04-27T04:16:58.394Z,9.18
2023-04-27T04:19:28.014Z,11.35
2023-04-27T04:21:58.042Z,12.07
2023-04-27T04:24:26.852Z,10.63
2023-04-27T04:26:55.473Z,11.15
2023-04-27T04:29:24.561Z,10.98
2023-04-27T04:31:53.945Z,11.40
2023-04-27T04:34:23.519Z,11.43
2023-04-27T04:36:52.841Z,10.50
2023-04-27T04:39:21.772Z,12.65
2023-04-27T04:41:51.499Z,11.02
2023-04-27T04:44:21.712Z,11.88
2023-04-27T04:46:50.470Z,11.25
2023-04-27T04:49:19.365Z,11.35
2023-04-27T04:51:48.188Z,12.13
2023-04-27T04:54:16.959Z,11.32
2023-04-27T04:56:45.638Z,10.60
2023-04-27T04:59:14.433Z,10.93
2023-04-27T05:01:43.265Z,13.52
2023-04-27T05:04:12.872Z,12.00
2023-04-27T05:06:41.648Z,11.70
2023-04-27T05:09:10.657Z,10.88
2023-04-27T05:11:39.305Z,11.07
2023-04-27T05:14:07.913Z,10.30
2023-04-27T05:16:36.656Z,14.38
2023-04-27T05:19:06.950Z,9.82
2023-04-27T05:21:35.767Z,9.75
2023-04-27T05:24:05.014Z,10.23
2023-04-27T05:26:34.090Z,11.45
2023-04-27T05:29:02.730Z,10.55
2023-04-27T05:31:31.541Z,10.18
2023-04-27T05:34:00.154Z,10.60
2023-04-27T05:36:29.862Z,10.75
2023-04-27T05:38:58.514Z,10.80
2023-04-27T05:41:27.344Z,10.40
2023-04-27T05:43:55.953Z,12.30
2023-04-27T05:46:33.636Z,9.95
2023-04-27T05:49:02.541Z,11.77
2023-04-27T05:51:31.146Z,11.75
2023-04-27T05:54:00.820Z,11.65
2023-04-27T05:56:29.587Z,13.02
2023-04-27T05:58:59.531Z,12.38
2023-04-27T06:01:29.856Z,12.70
2023-04-27T06:04:02.347Z,11.38
2023-04-27T06:06:34.257Z,13.07
2023-04-27T06:09:02.888Z,12.93
2023-04-27T06:11:31.627Z,14.32
2023-04-27T06:14:00.252Z,12.25
2023-04-27T06:16:28.940Z,13.05
2023-04-27T06:18:57.698Z,13.30
2023-04-27T06:21:26.325Z,14.10
2023-04-27T06:23:54.933Z,13.73
2023-04-27T06:26:23.593Z,19.83
2023-04-27T06:28:52.209Z,12.52
2023-04-27T06:31:20.856Z,14.27
2023-04-27T06:33:49.627Z,13.48
2023-04-27T06:36:18.274Z,14.82
2023-04-27T06:38:47.228Z,15.10
2023-04-27T06:41:15.854Z,13.48
2023-04-27T06:43:44.445Z,15.43
2023-04-27T06:46:13.201Z,14.65
2023-04-27T06:48:42.331Z,14.98
2023-04-27T06:51:11.252Z,19.73
2023-04-27T06:53:40.389Z,17.55
2023-04-27T06:56:13.230Z,16.15
2023-04-27T06:58:41.930Z,33.63
2023-04-27T07:01:10.624Z,25.95
2023-04-27T07:03:39.474Z,17.45
2023-04-27T07:06:08.339Z,17.30
2023-04-27T07:08:37.835Z,16.95
2023-04-27T07:11:06.536Z,17.70
2023-04-27T07:13:35.346Z,19.17
2023-04-27T07:16:04.077Z,18.27
2023-04-27T07:18:33.126Z,18.73
2023-04-27T07:21:01.949Z,16.85
2023-04-27T07:23:30.719Z,16.48
2023-04-27T07:26:00.176Z,17.75
2023-04-27T07:28:30.694Z,16.95
2023-04-27T07:30:59.554Z,17.10
2023-04-27T07:33:32.022Z,19.05
2023-04-27T07:36:01.148Z,17.92
2023-04-27T07:38:32.297Z,17.85
2023-04-27T07:41:07.054Z,18.60
2023-04-27T07:43:36.192Z,18.27
2023-04-27T07:46:05.374Z,17.73
2023-04-27T07:48:34.068Z,20.05
2023-04-27T07:51:02.881Z,18.83
2023-04-27T07:53:32.110Z,17.42
2023-04-27T07:56:00.739Z,18.70
2023-04-27T07:58:29.323Z,17.92
2023-04-27T08:00:58.004Z,17.42
2023-04-27T08:03:27.225Z,17.33
2023-04-27T08:05:56.509Z,19.40
2023-04-27T08:08:25.354Z,16.55
2023-04-27T08:10:53.980Z,16.40
2023-04-27T08:13:23.789Z,16.48
2023-04-27T08:15:59.339Z,37.17
2023-04-27T08:18:28.757Z,19.75
2023-04-27T08:20:57.560Z,18.25
2023-04-27T08:23:29.397Z,17.85
2023-04-27T08:25:58.438Z,16.97
2023-04-27T08:28:27.185Z,16.08
2023-04-27T08:30:56.117Z,19.90
2023-04-27T08:33:25.367Z,17.42
2023-04-27T08:35:56.611Z,16.83
2023-04-27T08:38:25.717Z,18.02
2023-04-27T08:40:54.390Z,18.50
2023-04-27T08:43:23.180Z,18.73
2023-04-27T08:45:52.202Z,18.55
2023-04-27T08:48:22.511Z,18.08
2023-04-27T08:50:54.061Z,18.02
2023-04-27T08:53:23.310Z,18.95
2023-04-27T08:55:52.680Z,19.08
2023-04-27T08:58:21.465Z,19.08
2023-04-27T09:00:50.812Z,18.35
2023-04-27T09:03:26.749Z,16.88
2023-04-27T09:06:04.735Z,17.35
2023-04-27T09:08:51.316Z,18.50
2023-04-27T09:11:37.172Z,17.73
2023-04-27T09:14:25.919Z,18.08
2023-04-27T09:16:58.834Z,17.75
2023-04-27T09:19:29.655Z,18.63
2023-04-27T09:22:15.422Z,17.60
2023-04-27T09:24:59.361Z,17.80
2023-04-27T09:27:28.228Z,17.27
2023-04-27T09:29:56.905Z,18.45
2023-04-27T09:32:25.663Z,19.30
2023-04-27T09:34:54.360Z,19.55
2023-04-27T09:37:24.375Z,21.27
2023-04-27T09:39:53.026Z,20.08
2023-04-27T09:42:21.783Z,19.27
2023-04-27T09:44:51.984Z,20.63
2023-04-27T09:47:20.905Z,19.08
2023-04-27T09:49:51.836Z,20.02
2023-04-27T09:52:20.508Z,19.52
2023-04-27T09:54:52.555Z,18.98
2023-04-27T09:57:41.270Z,18.73
2023-04-27T10:00:31.213Z,18.52
2023-04-27T10:03:15.881Z,19.48
2023-04-27T10:06:12.425Z,20.80
2023-04-27T10:08:42.780Z,20.77
2023-04-27T10:11:20.387Z,21.27
2023-04-27T10:13:57.266Z,19.70
2023-04-27T10:16:26.624Z,18.98
2023-04-27T10:18:57.860Z,20.13
2023-04-27T10:21:28.044Z,20.35
2023-04-27T10:23:56.645Z,20.73
2023-04-27T10:26:28.087Z,19.80
2023-04-27T10:28:59.683Z,19.95
2023-04-27T10:31:30.545Z,24.08
2023-04-27T10:34:10.705Z,20.88
2023-04-27T10:36:41.766Z,17.00
2023-04-27T10:39:46.850Z,20.02
2023-04-27T10:42:29.473Z,20.45
2023-04-27T10:45:00.082Z,22.98
2023-04-27T10:47:41.914Z,21.23
2023-04-27T10:50:14.282Z,19.42
2023-04-27T10:52:45.230Z,20.15
2023-04-27T10:55:16.806Z,20.67
2023-04-27T10:57:50.520Z,19.00
2023-04-27T11:00:25.026Z,18.45
2023-04-27T11:02:55.731Z,18.42
2023-04-27T11:05:30.864Z,18.77
2023-04-27T11:08:17.727Z,18.65
2023-04-27T11:10:50.841Z,20.13
2023-04-27T11:13:21.755Z,21.33
2023-04-27T11:15:53.234Z,20.08
2023-04-27T11:18:24.185Z,20.10
2023-04-27T11:21:07.738Z,20.08
2023-04-27T11:23:39.164Z,20.60
2023-04-27T11:26:13.178Z,20.77
2023-04-27T11:28:42.374Z,20.02
2023-04-27T11:31:11.154Z,21.00
2023-04-27T11:33:41.246Z,20.77
2023-04-27T11:36:26.866Z,25.95
2023-04-27T11:39:00.313Z,22.33
2023-04-27T11:41:38.069Z,24.00
2023-04-27T11:44:10.137Z,20.85
2023-04-27T11:46:39.290Z,23.60
2023-04-27T11:49:09.954Z,23.70
2023-04-27T11:51:38.771Z,22.45
2023-04-27T11:54:08.605Z,22.63
2023-04-27T11:56:39.391Z,23.48
2023-04-27T11:59:18.987Z,22.33
2023-04-27T12:01:47.939Z,21.83
2023-04-27T12:04:17.857Z,23.85
2023-04-27T12:06:46.810Z,24.17
2023-04-27T12:09:15.638Z,24.50
2023-04-27T12:11:44.411Z,25.67
2023-04-27T12:14:13.953Z,26.42
2023-04-27T12:16:43.030Z,24.80
2023-04-27T12:19:11.684Z,26.40
2023-04-27T12:21:40.831Z,26.33
2023-04-27T12:24:09.628Z,26.60
2023-04-27T12:26:38.365Z,25.58
2023-04-27T12:29:07.311Z,25.85
2023-04-27T12:31:36.491Z,25.80
2023-04-27T12:34:05.224Z,26.05
2023-04-27T12:36:33.965Z,24.13
2023-04-27T12:39:16.183Z,25.83
2023-04-27T12:41:45.949Z,25.30
2023-04-27T12:44:15.962Z,24.55
2023-04-27T12:46:45.773Z,25.98
2023-04-27T12:49:14.797Z,26.08
2023-04-27T12:51:44.111Z,27.00
2023-04-27T12:54:14.100Z,27.38
2023-04-27T12:56:43.265Z,27.27
2023-04-27T12:59:12.062Z,29.77
2023-04-27T13:01:40.987Z,38.83
2023-04-27T13:04:10.209Z,33.45
2023-04-27T13:06:39.192Z,39.35
2023-04-27T13:09:08.140Z,33.05
2023-04-27T13:11:36.969Z,31.30
2023-04-27T13:14:06.675Z,28.88
2023-04-27T13:16:35.635Z,33.60
2023-04-27T13:19:04.413Z,26.73
2023-04-27T13:21:34.150Z,26.90
2023-04-27T13:24:02.913Z,26.88
2023-04-27T13:26:31.996Z,28.98
2023-04-27T13:29:01.607Z,25.17
2023-04-27T13:31:30.541Z,24.45
2023-04-27T13:33:59.647Z,23.63
2023-04-27T13:36:29.669Z,23.92
2023-04-27T13:38:58.648Z,24.17
2023-04-27T13:41:29.279Z,22.38
2023-04-27T13:43:58.325Z,22.65
2023-04-27T13:46:27.876Z,21.90
2023-04-27T13:48:57.027Z,22.13
2023-04-27T13:51:26.483Z,20.85
2023-04-27T13:53:55.247Z,20.83
2023-04-27T13:56:23.966Z,24.00
2023-04-27T13:58:52.790Z,26.33
2023-04-27T14:01:21.704Z,22.67
2023-04-27T14:03:50.605Z,22.35
2023-04-27T14:06:19.408Z,22.25
2023-04-27T14:08:48.405Z,24.58
2023-04-27T14:11:17.250Z,21.35
2023-04-27T14:13:46.109Z,20.75
2023-04-27T14:16:14.892Z,20.67
2023-04-27T14:18:43.718Z,21.30
2023-04-27T14:21:12.512Z,21.77
2023-04-27T14:23:41.336Z,20.85
2023-04-27T14:26:11.103Z,20.58
2023-04-27T14:28:39.788Z,28.27
2023-04-27T14:31:08.434Z,28.42
2023-04-27T14:33:37.160Z,19.58
2023-04-27T14:36:05.991Z,19.88
2023-04-27T14:38:34.612Z,20.10
2023-04-27T14:41:06.291Z,20.08
2023-04-27T14:43:34.978Z,19.77
2023-04-27T14:46:19.112Z,20.02
2023-04-27T14:48:49.393Z,20.25
2023-04-27T14:51:18.337Z,21.85
2023-04-27T14:53:47.340Z,24.80
2023-04-27T14:56:16.123Z,20.83
2023-04-27T14:58:44.910Z,23.90
2023-04-27T15:01:13.686Z,22.00
2023-04-27T15:03:42.570Z,22.30
2023-04-27T15:06:11.462Z,22.08
2023-04-27T15:08:40.168Z,23.58
2023-04-27T15:11:08.794Z,22.08
2023-04-27T15:13:37.483Z,23.63
2023-04-27T15:16:08.075Z,23.17
2023-04-27T15:18:37.251Z,23.15
2023-04-27T15:21:05.997Z,22.50
2023-04-27T15:23:38.052Z,23.25
2023-04-27T15:26:07.009Z,22.73
2023-04-27T15:28:35.781Z,23.10
2023-04-27T15:31:04.504Z,22.40
2023-04-27T15:33:33.219Z,21.75
2023-04-27T15:36:01.973Z,21.95
2023-04-27T15:38:30.669Z,22.95
2023-04-27T15:40:59.773Z,22.75
2023-04-27T15:43:28.513Z,22.88
2023-04-27T15:45:57.250Z,22.63
2023-04-27T15:48:26.864Z,23.95
2023-04-27T15:50:55.547Z,23.33
2023-04-27T15:53:24.247Z,21.05
2023-04-27T15:55:52.918Z,22.55
2023-04-27T15:58:21.811Z,21.90
2023-04-27T16:00:50.506Z,20.80
2023-04-27T16:03:19.285Z,22.42
2023-04-27T16:05:51.996Z,22.15
2023-04-27T16:08:21.063Z,21.70
2023-04-27T16:10:51.116Z,22.30
2023-04-27T16:13:19.898Z,23.00
2023-04-27T16:15:48.685Z,22.13
2023-04-27T16:18:17.373Z,24.35
2023-04-27T16:20:46.043Z,22.35
2023-04-27T16:23:18.056Z,22.98
2023-04-27T16:25:46.856Z,22.40
2023-04-27T16:28:16.116Z,23.52
2023-04-27T16:30:44.959Z,22.13
2023-04-27T16:33:13.825Z,22.15
2023-04-27T16:35:42.679Z,21.67
2023-04-27T16:38:11.562Z,22.48
2023-04-27T16:40:40.416Z,22.85
2023-04-27T16:43:09.422Z,22.15
2023-04-27T16:45:39.632Z,23.77
2023-04-27T16:48:10.255Z,22.90
2023-04-27T17:05:03.631Z,25.60
2023-04-27T17:07:33.682Z,23.67
2023-04-27T17:10:02.468Z,22.65
2023-04-27T17:12:31.177Z,22.63
2023-04-27T17:14:59.944Z,23.70
2023-04-27T17:17:28.928Z,24.83
2023-04-27T17:19:58.647Z,23.38
2023-04-27T17:22:27.944Z,22.55
2023-04-27T17:24:57.245Z,23.35
2023-04-27T17:27:25.987Z,22.15
2023-04-27T17:29:55.704Z,22.65
2023-04-27T17:32:24.442Z,22.40
2023-04-27T17:34:53.499Z,23.77
2023-04-27T17:37:22.264Z,22.08
2023-04-27T17:39:53.966Z,22.92
2023-04-27T17:42:22.713Z,24.92
2023-04-27T17:44:51.427Z,21.92
2023-04-27T17:47:21.763Z,23.13
2023-04-27T17:49:50.369Z,23.17
2023-04-27T17:52:18.939Z,22.65
2023-04-27T17:54:47.723Z,23.42
2023-04-27T17:57:16.384Z,22.45
2023-04-27T17:59:45.916Z,23.13
2023-04-27T18:02:14.573Z,23.63
2023-04-27T18:04:43.525Z,24.98
2023-04-27T18:07:12.140Z,23.67
2023-04-27T18:09:40.802Z,24.10
2023-04-27T18:12:11.763Z,24.05
2023-04-27T18:14:40.499Z,25.45
2023-04-27T18:17:09.583Z,23.25
2023-04-27T18:19:38.219Z,24.70
2023-04-27T18:22:06.902Z,23.42
2023-04-27T18:24:35.662Z,23.65
2023-04-27T18:27:05.019Z,24.67
2023-04-27T18:29:34.035Z,25.38
2023-04-27T18:32:06.476Z,24.02
2023-04-27T18:34:35.858Z,25.20
2023-04-27T18:37:04.532Z,23.40
2023-04-27T18:39:33.150Z,24.23
2023-04-27T18:42:01.931Z,24.98
2023-04-27T18:44:30.563Z,25.25
2023-04-27T18:46:59.916Z,24.88
2023-04-27T18:49:28.565Z,24.75
2023-04-27T18:51:57.169Z,24.48
2023-04-27T18:54:26.432Z,22.92
2023-04-27T18:56:55.095Z,25.00
2023-04-27T18:59:23.774Z,24.50
2023-04-27T19:04:21.238Z,25.45
2023-04-27T19:06:51.045Z,24.83
2023-04-27T19:09:20.198Z,25.15
2023-04-27T19:11:56.161Z,25.52
2023-04-27T19:14:31.733Z,26.00
2023-04-27T19:17:00.517Z,25.98
2023-04-27T19:19:29.389Z,25.52
2023-04-27T19:21:59.377Z,25.58
2023-04-27T19:24:28.388Z,25.88
2023-04-27T19:26:57.063Z,47.83
2023-04-27T19:29:29.673Z,28.52
2023-04-27T19:31:58.501Z,27.02
2023-04-27T19:34:27.449Z,26.38
2023-04-27T19:36:56.085Z,26.35
2023-04-27T19:39:24.719Z,26.80
2023-04-27T19:41:53.396Z,27.38
2023-04-27T19:44:22.172Z,27.25
2023-04-27T19:46:50.868Z,27.15
2023-04-27T19:49:19.633Z,24.95
2023-04-27T19:51:48.232Z,26.27
2023-04-27T19:54:17.914Z,25.00
2023-04-27T19:56:46.962Z,25.13
2023-04-27T19:59:16.400Z,26.95
2023-04-27T20:01:45.060Z,26.85
2023-04-27T20:04:14.294Z,26.42
2023-04-27T20:06:44.293Z,27.38
2023-04-27T20:09:13.006Z,27.52
2023-04-27T20:11:41.753Z,29.13
2023-04-27T20:14:10.333Z,28.73
2023-04-27T20:16:38.997Z,28.40
2023-04-27T20:19:07.680Z,28.83
2023-04-27T20:21:36.613Z,27.27
2023-04-27T20:24:05.418Z,27.65
2023-04-27T20:26:34.070Z,28.55
2023-04-27T20:29:02.821Z,29.10
2023-04-27T20:31:31.496Z,28.27
2023-04-27T20:34:00.204Z,28.48
2023-04-27T20:36:28.804Z,28.60
2023-04-27T20:38:58.498Z,29.50
2023-04-27T20:41:27.109Z,29.35
2023-04-27T20:43:56.312Z,31.42
2023-04-27T20:46:24.905Z,30.35
2023-04-27T20:48:53.579Z,30.35
2023-04-27T20:51:22.787Z,31.75
2023-04-27T20:53:51.842Z,30.42
2023-04-27T20:56:21.152Z,32.63
2023-04-27T20:58:49.769Z,31.00
2023-04-27T21:01:18.483Z,32.03
2023-04-27T21:03:47.538Z,30.90
2023-04-27T21:06:16.692Z,30.02
2023-04-27T21:08:45.333Z,30.67
2023-04-27T21:11:15.111Z,32.60
2023-04-27T21:13:45.264Z,30.92
2023-04-27T21:16:13.899Z,29.65
2023-04-27T21:18:42.545Z,31.88
2023-04-27T21:21:11.608Z,32.22
2023-04-27T21:23:40.283Z,32.20
2023-04-27T21:26:10.545Z,31.45
2023-04-27T21:28:39.180Z,30.92
2023-04-27T21:31:07.906Z,32.33
2023-04-27T21:33:36.696Z,32.35
2023-04-27T21:36:05.705Z,31.75
2023-04-27T21:38:34.294Z,31.98
2023-04-27T21:41:02.921Z,30.67
2023-04-27T21:43:31.652Z,31.55
2023-04-27T21:46:00.584Z,31.67
2023-04-27T21:48:29.232Z,31.55
2023-04-27T21:50:57.834Z,31.48
2023-04-27T21:53:26.464Z,30.92
2023-04-27T21:55:58.685Z,32.60
2023-04-27T21:58:27.699Z,44.70
2023-04-27T22:00:59.423Z,34.92
2023-04-27T22:03:29.301Z,30.58
2023-04-27T22:05:58.581Z,32.90
2023-04-27T22:08:27.245Z,33.47
2023-04-27T22:10:56.672Z,31.40
2023-04-27T22:13:25.401Z,30.73
2023-04-27T22:15:54.138Z,31.33
2023-04-27T22:18:22.821Z,31.63
2023-04-27T22:20:51.574Z,34.60
2023-04-27T22:23:20.195Z,31.63
2023-04-27T22:25:48.817Z,33.08
2023-04-27T22:28:17.534Z,37.75
2023-04-27T22:30:46.321Z,32.38
2023-04-27T22:33:15.103Z,34.85
2023-04-27T22:35:43.742Z,37.08
2023-04-27T22:38:12.434Z,33.20
2023-04-27T22:40:41.673Z,30.85
2023-04-27T22:43:10.280Z,34.55
2023-04-27T22:45:39.196Z,34.13
2023-04-27T22:48:08.121Z,36.40
2023-04-27T22:50:36.918Z,36.05
2023-04-27T22:53:05.783Z,33.67
2023-04-27T22:55:34.368Z,34.25
2023-04-27T22:58:03.002Z,33.03
2023-04-27T23:00:31.843Z,35.45
2023-04-27T23:03:00.549Z,36.38
2023-04-27T23:05:30.989Z,33.25
2023-04-27T23:08:00.844Z,32.78
2023-04-27T23:10:31.910Z,38.42
2023-04-27T23:13:02.812Z,36.10
2023-04-27T23:15:31.551Z,33.33
2023-04-27T23:18:00.262Z,33.95
2023-04-27T23:20:29.315Z,37.13
2023-04-27T23:22:58.310Z,41.30
2023-04-27T23:25:27.150Z,32.00
2023-04-27T23:27:55.771Z,33.13
2023-04-27T23:30:24.485Z,31.83
2023-04-27T23:32:53.342Z,33.58
2023-04-27T23:35:22.195Z,33.97
2023-04-27T23:37:50.805Z,33.72
2023-04-27T23:40:19.694Z,34.72
2023-04-27T23:42:50.212Z,33.80
2023-04-27T23:45:21.213Z,35.53
2023-04-27T23:47:50.012Z,35.42
2023-04-27T23:50:18.737Z,41.47
2023-04-27T23:52:47.416Z,35.00
2023-04-27T23:55:16.047Z,32.95
2023-04-27T23:57:45.732Z,35.13
